sensor_id;sensor_type;location;lat;lon;timestamp;temperature;humidity
55795;DHT22;41716;51.910;4.430;2023-06-10T00:00:55;25.50;99.90
55795;DHT22;41716;51.910;4.430;2023-06-10T00:05:57;25.30;99.90
55795;DHT22;41716;51.910;4.430;2023-06-10T00:10:58;25.40;99.90
55795;DHT22;41716;51.910;4.430;2023-06-10T00:16:02;25.20;99.90
55795;DHT22;41716;51.910;4.430;2023-06-10T00:21:04;25.40;99.90
55795;DHT22;41716;51.910;4.430;2023-06-10T00:26:06;25.20;99.90
55795;DHT22;41716;51.910;4.430;2023-06-10T00:31:09;25.10;99.90
55795;DHT22;41716;51.910;4.430;2023-06-10T00:36:10;25.00;99.90
55795;DHT22;41716;51.910;4.430;2023-06-10T00:41:12;24.90;99.90
55795;DHT22;41716;51.910;4.430;2023-06-10T00:46:15;24.80;99.90
55795;DHT22;41716;51.910;4.430;2023-06-10T00:51:17;24.80;99.90
55795;DHT22;41716;51.910;4.430;2023-06-10T00:56:20;24.60;99.90
55795;DHT22;41716;51.910;4.430;2023-06-10T01:01:23;24.50;99.90
55795;DHT22;41716;51.910;4.430;2023-06-10T01:06:31;24.50;99.90
55795;DHT22;41716;51.910;4.430;2023-06-10T01:11:46;24.50;99.90
55795;DHT22;41716;51.910;4.430;2023-06-10T01:16:50;24.50;99.90
55795;DHT22;41716;51.910;4.430;2023-06-10T01:21:54;24.20;99.90
55795;DHT22;41716;51.910;4.430;2023-06-10T01:26:56;24.10;99.90
55795;DHT22;41716;51.910;4.430;2023-06-10T01:32:03;24.10;99.90
55795;DHT22;41716;51.910;4.430;2023-06-10T01:37:09;24.00;99.90
55795;DHT22;41716;51.910;4.430;2023-06-10T01:42:11;24.10;99.90
55795;DHT22;41716;51.910;4.430;2023-06-10T01:47:13;23.90;99.90
55795;DHT22;41716;51.910;4.430;2023-06-10T01:52:16;23.80;99.90
55795;DHT22;41716;51.910;4.430;2023-06-10T01:57:18;23.80;99.90
55795;DHT22;41716;51.910;4.430;2023-06-10T02:02:20;23.60;99.90
55795;DHT22;41716;51.910;4.430;2023-06-10T02:07:24;23.50;99.90
55795;DHT22;41716;51.910;4.430;2023-06-10T02:12:25;23.50;99.90
55795;DHT22;41716;51.910;4.430;2023-06-10T02:17:27;23.60;99.90
55795;DHT22;41716;51.910;4.430;2023-06-10T02:22:30;23.60;99.90
55795;DHT22;41716;51.910;4.430;2023-06-10T02:27:32;23.50;99.90
55795;DHT22;41716;51.910;4.430;2023-06-10T02:32:34;23.40;99.90
55795;DHT22;41716;51.910;4.430;2023-06-10T02:37:37;23.40;99.90
55795;DHT22;41716;51.910;4.430;2023-06-10T02:42:39;23.40;99.90
55795;DHT22;41716;51.910;4.430;2023-06-10T02:47:41;23.20;99.90
55795;DHT22;41716;51.910;4.430;2023-06-10T02:52:45;23.20;99.90
55795;DHT22;41716;51.910;4.430;2023-06-10T02:57:47;23.10;99.90
55795;DHT22;41716;51.910;4.430;2023-06-10T03:02:49;22.90;99.90
55795;DHT22;41716;51.910;4.430;2023-06-10T03:07:52;23.00;99.90
55795;DHT22;41716;51.910;4.430;2023-06-10T03:12:54;23.00;99.90
55795;DHT22;41716;51.910;4.430;2023-06-10T03:17:55;22.90;99.90
55795;DHT22;41716;51.910;4.430;2023-06-10T03:22:59;22.80;99.90
55795;DHT22;41716;51.910;4.430;2023-06-10T03:28:01;22.70;99.90
55795;DHT22;41716;51.910;4.430;2023-06-10T03:33:03;22.60;99.90
55795;DHT22;41716;51.910;4.430;2023-06-10T03:38:06;22.70;99.90
55795;DHT22;41716;51.910;4.430;2023-06-10T03:43:07;22.60;99.90
55795;DHT22;41716;51.910;4.430;2023-06-10T03:48:09;22.50;99.90
55795;DHT22;41716;51.910;4.430;2023-06-10T03:53:12;22.50;99.90
55795;DHT22;41716;51.910;4.430;2023-06-10T03:58:14;22.50;99.90
55795;DHT22;41716;51.910;4.430;2023-06-10T04:03:16;22.40;99.90
55795;DHT22;41716;51.910;4.430;2023-06-10T04:08:19;22.20;99.90
55795;DHT22;41716;51.910;4.430;2023-06-10T04:13:21;22.30;99.90
55795;DHT22;41716;51.910;4.430;2023-06-10T04:18:22;22.20;99.90
55795;DHT22;41716;51.910;4.430;2023-06-10T04:23:25;22.00;99.90
55795;DHT22;41716;51.910;4.430;2023-06-10T04:28:27;22.10;99.90
55795;DHT22;41716;51.910;4.430;2023-06-10T04:33:29;22.10;99.90
55795;DHT22;41716;51.910;4.430;2023-06-10T04:38:32;22.00;99.90
55795;DHT22;41716;51.910;4.430;2023-06-10T04:43:34;21.90;99.90
55795;DHT22;41716;51.910;4.430;2023-06-10T04:48:35;22.10;99.90
55795;DHT22;41716;51.910;4.430;2023-06-10T04:53:38;22.00;99.90
55795;DHT22;41716;51.910;4.430;2023-06-10T04:58:40;22.10;99.90
55795;DHT22;41716;51.910;4.430;2023-06-10T05:03:42;22.10;99.90
55795;DHT22;41716;51.910;4.430;2023-06-10T05:08:45;22.00;99.90
55795;DHT22;41716;51.910;4.430;2023-06-10T05:13:46;22.10;99.90
55795;DHT22;41716;51.910;4.430;2023-06-10T05:18:49;22.20;99.90
55795;DHT22;41716;51.910;4.430;2023-06-10T05:23:53;22.20;99.90
55795;DHT22;41716;51.910;4.430;2023-06-10T05:28:55;22.30;99.90
55795;DHT22;41716;51.910;4.430;2023-06-10T05:33:57;22.50;99.90
55795;DHT22;41716;51.910;4.430;2023-06-10T05:39:00;22.60;99.90
55795;DHT22;41716;51.910;4.430;2023-06-10T05:44:02;22.50;99.90
55795;DHT22;41716;51.910;4.430;2023-06-10T05:49:04;22.70;99.90
55795;DHT22;41716;51.910;4.430;2023-06-10T05:54:07;22.90;99.90
55795;DHT22;41716;51.910;4.430;2023-06-10T05:59:08;22.90;99.90
55795;DHT22;41716;51.910;4.430;2023-06-10T06:04:10;23.00;99.90
55795;DHT22;41716;51.910;4.430;2023-06-10T06:09:13;23.10;99.90
55795;DHT22;41716;51.910;4.430;2023-06-10T06:14:15;23.40;99.90
55795;DHT22;41716;51.910;4.430;2023-06-10T06:19:16;23.50;99.90
55795;DHT22;41716;51.910;4.430;2023-06-10T06:24:19;23.50;99.90
55795;DHT22;41716;51.910;4.430;2023-06-10T06:29:21;23.90;99.90
55795;DHT22;41716;51.910;4.430;2023-06-10T06:34:23;24.10;99.90
55795;DHT22;41716;51.910;4.430;2023-06-10T06:39:26;24.40;99.90
55795;DHT22;41716;51.910;4.430;2023-06-10T06:44:27;24.60;99.90
55795;DHT22;41716;51.910;4.430;2023-06-10T06:49:29;24.90;99.90
55795;DHT22;41716;51.910;4.430;2023-06-10T06:54:32;25.10;99.90
55795;DHT22;41716;51.910;4.430;2023-06-10T06:59:34;25.40;99.90
55795;DHT22;41716;51.910;4.430;2023-06-10T07:04:38;25.60;99.90
55795;DHT22;41716;51.910;4.430;2023-06-10T07:09:42;25.90;99.90
55795;DHT22;41716;51.910;4.430;2023-06-10T07:14:44;26.20;99.90
55795;DHT22;41716;51.910;4.430;2023-06-10T07:19:46;26.40;99.90
55795;DHT22;41716;51.910;4.430;2023-06-10T07:24:49;26.30;99.90
55795;DHT22;41716;51.910;4.430;2023-06-10T07:29:52;26.90;99.90
55795;DHT22;41716;51.910;4.430;2023-06-10T07:34:54;27.20;99.90
55795;DHT22;41716;51.910;4.430;2023-06-10T07:39:57;27.30;99.90
55795;DHT22;41716;51.910;4.430;2023-06-10T07:44:59;27.60;99.90
55795;DHT22;41716;51.910;4.430;2023-06-10T07:50:01;27.90;99.90
55795;DHT22;41716;51.910;4.430;2023-06-10T07:55:05;28.10;99.90
55795;DHT22;41716;51.910;4.430;2023-06-10T08:00:07;28.50;99.90
55795;DHT22;41716;51.910;4.430;2023-06-10T08:05:09;28.90;99.90
55795;DHT22;41716;51.910;4.430;2023-06-10T08:10:12;29.10;99.90
55795;DHT22;41716;51.910;4.430;2023-06-10T08:15:14;29.80;99.90
55795;DHT22;41716;51.910;4.430;2023-06-10T08:20:15;29.80;99.90
55795;DHT22;41716;51.910;4.430;2023-06-10T08:25:19;30.00;99.90
55795;DHT22;41716;51.910;4.430;2023-06-10T08:30:22;30.10;99.90
55795;DHT22;41716;51.910;4.430;2023-06-10T08:35:24;30.60;99.90
55795;DHT22;41716;51.910;4.430;2023-06-10T08:40:27;30.80;99.90
55795;DHT22;41716;51.910;4.430;2023-06-10T08:45:30;30.80;99.90
55795;DHT22;41716;51.910;4.430;2023-06-10T08:50:34;30.60;99.90
55795;DHT22;41716;51.910;4.430;2023-06-10T08:55:40;31.10;99.90
55795;DHT22;41716;51.910;4.430;2023-06-10T09:00:43;31.90;99.90
55795;DHT22;41716;51.910;4.430;2023-06-10T09:05:45;32.20;99.90
55795;DHT22;41716;51.910;4.430;2023-06-10T09:10:48;32.40;99.90
55795;DHT22;41716;51.910;4.430;2023-06-10T09:15:50;32.60;99.40
55795;DHT22;41716;51.910;4.430;2023-06-10T09:20:52;32.50;98.30
55795;DHT22;41716;51.910;4.430;2023-06-10T09:25:58;32.90;98.80
55795;DHT22;41716;51.910;4.430;2023-06-10T09:31:04;33.30;98.60
55795;DHT22;41716;51.910;4.430;2023-06-10T09:36:06;33.40;97.80
55795;DHT22;41716;51.910;4.430;2023-06-10T09:41:09;33.80;97.70
55795;DHT22;41716;51.910;4.430;2023-06-10T09:46:16;34.20;96.80
55795;DHT22;41716;51.910;4.430;2023-06-10T09:51:18;34.20;95.60
55795;DHT22;41716;51.910;4.430;2023-06-10T09:56:21;34.40;96.10
55795;DHT22;41716;51.910;4.430;2023-06-10T10:01:34;34.70;95.90
55795;DHT22;41716;51.910;4.430;2023-06-10T10:06:36;34.60;96.10
55795;DHT22;41716;51.910;4.430;2023-06-10T10:11:40;34.70;95.00
55795;DHT22;41716;51.910;4.430;2023-06-10T10:16:42;35.20;95.20
55795;DHT22;41716;51.910;4.430;2023-06-10T10:21:47;35.30;95.30
55795;DHT22;41716;51.910;4.430;2023-06-10T10:26:55;35.80;94.80
55795;DHT22;41716;51.910;4.430;2023-06-10T10:32:00;36.20;94.70
55795;DHT22;41716;51.910;4.430;2023-06-10T10:37:03;36.40;94.40
55795;DHT22;41716;51.910;4.430;2023-06-10T10:42:07;36.10;94.50
55795;DHT22;41716;51.910;4.430;2023-06-10T10:47:11;36.40;93.80
55795;DHT22;41716;51.910;4.430;2023-06-10T10:52:13;36.80;93.30
55795;DHT22;41716;51.910;4.430;2023-06-10T10:57:18;36.90;93.10
55795;DHT22;41716;51.910;4.430;2023-06-10T11:02:36;36.90;91.70
55795;DHT22;41716;51.910;4.430;2023-06-10T11:07:39;37.10;92.40
55795;DHT22;41716;51.910;4.430;2023-06-10T11:12:49;37.30;92.20
55795;DHT22;41716;51.910;4.430;2023-06-10T11:18:10;37.60;91.70
55795;DHT22;41716;51.910;4.430;2023-06-10T11:23:32;38.00;91.00
55795;DHT22;41716;51.910;4.430;2023-06-10T11:28:35;38.00;90.60
55795;DHT22;41716;51.910;4.430;2023-06-10T11:33:38;38.10;90.20
55795;DHT22;41716;51.910;4.430;2023-06-10T11:38:40;37.80;90.40
55795;DHT22;41716;51.910;4.430;2023-06-10T11:43:44;38.30;90.50
55795;DHT22;41716;51.910;4.430;2023-06-10T11:48:49;38.00;89.50
55795;DHT22;41716;51.910;4.430;2023-06-10T11:53:50;38.20;87.80
55795;DHT22;41716;51.910;4.430;2023-06-10T11:58:56;38.00;84.80
55795;DHT22;41716;51.910;4.430;2023-06-10T12:04:00;37.70;87.50
55795;DHT22;41716;51.910;4.430;2023-06-10T12:09:01;37.80;85.00
55795;DHT22;41716;51.910;4.430;2023-06-10T12:14:05;37.60;84.90
55795;DHT22;41716;51.910;4.430;2023-06-10T12:19:06;37.60;84.90
55795;DHT22;41716;51.910;4.430;2023-06-10T12:24:10;37.30;84.30
55795;DHT22;41716;51.910;4.430;2023-06-10T12:29:20;37.20;82.40
55795;DHT22;41716;51.910;4.430;2023-06-10T12:34:34;37.80;84.20
55795;DHT22;41716;51.910;4.430;2023-06-10T12:39:36;38.30;83.80
55795;DHT22;41716;51.910;4.430;2023-06-10T12:44:40;36.80;82.90
55795;DHT22;41716;51.910;4.430;2023-06-10T12:49:42;37.80;83.60
55795;DHT22;41716;51.910;4.430;2023-06-10T12:54:44;37.90;83.20
55795;DHT22;41716;51.910;4.430;2023-06-10T12:59:47;37.70;82.50
55795;DHT22;41716;51.910;4.430;2023-06-10T13:04:52;37.60;83.10
55795;DHT22;41716;51.910;4.430;2023-06-10T13:09:54;37.60;80.60
55795;DHT22;41716;51.910;4.430;2023-06-10T13:14:57;38.10;79.90
55795;DHT22;41716;51.910;4.430;2023-06-10T13:19:59;37.80;80.90
55795;DHT22;41716;51.910;4.430;2023-06-10T13:25:01;38.00;80.70
55795;DHT22;41716;51.910;4.430;2023-06-10T13:30:06;37.70;79.70
55795;DHT22;41716;51.910;4.430;2023-06-10T13:35:08;38.00;78.80
55795;DHT22;41716;51.910;4.430;2023-06-10T13:40:11;38.10;78.60
55795;DHT22;41716;51.910;4.430;2023-06-10T13:45:14;37.90;78.00
55795;DHT22;41716;51.910;4.430;2023-06-10T13:50:16;37.80;78.30
55795;DHT22;41716;51.910;4.430;2023-06-10T13:55:17;37.50;79.80
55795;DHT22;41716;51.910;4.430;2023-06-10T14:00:22;37.70;77.60
55795;DHT22;41716;51.910;4.430;2023-06-10T14:05:23;36.30;77.80
55795;DHT22;41716;51.910;4.430;2023-06-10T14:10:27;37.00;77.70
55795;DHT22;41716;51.910;4.430;2023-06-10T14:15:30;37.60;78.10
55795;DHT22;41716;51.910;4.430;2023-06-10T14:20:33;37.30;76.70
55795;DHT22;41716;51.910;4.430;2023-06-10T14:25:34;37.50;76.20
55795;DHT22;41716;51.910;4.430;2023-06-10T14:30:37;37.20;76.40
55795;DHT22;41716;51.910;4.430;2023-06-10T14:35:39;37.10;77.20
55795;DHT22;41716;51.910;4.430;2023-06-10T14:40:41;37.20;77.00
55795;DHT22;41716;51.910;4.430;2023-06-10T14:45:44;36.50;77.00
55795;DHT22;41716;51.910;4.430;2023-06-10T14:50:46;36.30;75.90
55795;DHT22;41716;51.910;4.430;2023-06-10T14:55:51;36.60;76.90
55795;DHT22;41716;51.910;4.430;2023-06-10T15:00:54;36.50;77.00
55795;DHT22;41716;51.910;4.430;2023-06-10T15:05:56;35.70;77.90
55795;DHT22;41716;51.910;4.430;2023-06-10T15:10:57;35.90;77.90
55795;DHT22;41716;51.910;4.430;2023-06-10T15:16:02;36.20;78.20
55795;DHT22;41716;51.910;4.430;2023-06-10T15:21:04;35.70;76.90
55795;DHT22;41716;51.910;4.430;2023-06-10T15:26:06;36.10;76.50
55795;DHT22;41716;51.910;4.430;2023-06-10T15:31:09;36.00;76.50
55795;DHT22;41716;51.910;4.430;2023-06-10T15:36:10;36.10;77.00
55795;DHT22;41716;51.910;4.430;2023-06-10T15:41:13;36.00;76.20
55795;DHT22;41716;51.910;4.430;2023-06-10T15:46:17;35.80;76.10
55795;DHT22;41716;51.910;4.430;2023-06-10T15:51:18;35.80;76.50
55795;DHT22;41716;51.910;4.430;2023-06-10T15:56:20;35.60;76.30
55795;DHT22;41716;51.910;4.430;2023-06-10T16:01:24;35.60;75.70
55795;DHT22;41716;51.910;4.430;2023-06-10T16:06:26;35.10;76.20
55795;DHT22;41716;51.910;4.430;2023-06-10T16:11:27;35.20;75.60
55795;DHT22;41716;51.910;4.430;2023-06-10T16:16:30;35.10;75.10
55795;DHT22;41716;51.910;4.430;2023-06-10T16:21:32;34.80;74.60
55795;DHT22;41716;51.910;4.430;2023-06-10T16:26:34;34.70;74.80
55795;DHT22;41716;51.910;4.430;2023-06-10T16:31:37;34.50;74.70
55795;DHT22;41716;51.910;4.430;2023-06-10T16:36:38;34.40;82.30
55795;DHT22;41716;51.910;4.430;2023-06-10T16:41:40;34.10;83.10
55795;DHT22;41716;51.910;4.430;2023-06-10T16:46:43;33.50;84.30
55795;DHT22;41716;51.910;4.430;2023-06-10T16:51:45;33.90;85.10
55795;DHT22;41716;51.910;4.430;2023-06-10T16:56:47;34.10;84.40
55795;DHT22;41716;51.910;4.430;2023-06-10T17:01:50;33.90;84.40
55795;DHT22;41716;51.910;4.430;2023-06-10T17:06:51;33.80;84.00
55795;DHT22;41716;51.910;4.430;2023-06-10T17:11:54;33.70;84.10
55795;DHT22;41716;51.910;4.430;2023-06-10T17:16:57;33.40;83.70
55795;DHT22;41716;51.910;4.430;2023-06-10T17:21:59;33.20;84.00
55795;DHT22;41716;51.910;4.430;2023-06-10T17:27:01;33.20;83.40
55795;DHT22;41716;51.910;4.430;2023-06-10T17:32:05;33.30;84.00
55795;DHT22;41716;51.910;4.430;2023-06-10T17:37:07;33.20;82.80
55795;DHT22;41716;51.910;4.430;2023-06-10T17:42:09;32.90;82.70
55795;DHT22;41716;51.910;4.430;2023-06-10T17:47:12;32.80;83.10
55795;DHT22;41716;51.910;4.430;2023-06-10T17:52:14;32.80;83.30
55795;DHT22;41716;51.910;4.430;2023-06-10T17:57:16;32.60;83.70
55795;DHT22;41716;51.910;4.430;2023-06-10T18:02:19;32.40;83.70
55795;DHT22;41716;51.910;4.430;2023-06-10T18:07:20;32.60;84.00
55795;DHT22;41716;51.910;4.430;2023-06-10T18:12:22;32.40;83.50
55795;DHT22;41716;51.910;4.430;2023-06-10T18:17:25;32.40;84.60
55795;DHT22;41716;51.910;4.430;2023-06-10T18:22:27;32.70;84.30
55795;DHT22;41716;51.910;4.430;2023-06-10T18:27:29;32.80;86.60
55795;DHT22;41716;51.910;4.430;2023-06-10T18:32:32;32.70;83.40
55795;DHT22;41716;51.910;4.430;2023-06-10T18:37:33;32.60;85.20
55795;DHT22;41716;51.910;4.430;2023-06-10T18:42:35;32.10;83.50
55795;DHT22;41716;51.910;4.430;2023-06-10T18:47:38;32.00;83.40
55795;DHT22;41716;51.910;4.430;2023-06-10T18:52:40;31.80;83.30
55795;DHT22;41716;51.910;4.430;2023-06-10T18:57:42;31.50;83.00
55795;DHT22;41716;51.910;4.430;2023-06-10T19:02:45;31.40;83.70
55795;DHT22;41716;51.910;4.430;2023-06-10T19:07:46;31.50;83.40
55795;DHT22;41716;51.910;4.430;2023-06-10T19:12:48;31.20;84.40
55795;DHT22;41716;51.910;4.430;2023-06-10T19:17:51;30.80;84.30
55795;DHT22;41716;51.910;4.430;2023-06-10T19:22:53;30.80;84.50
55795;DHT22;41716;51.910;4.430;2023-06-10T19:27:55;30.80;85.70
55795;DHT22;41716;51.910;4.430;2023-06-10T19:32:58;30.50;85.00
55795;DHT22;41716;51.910;4.430;2023-06-10T19:37:59;30.50;85.30
55795;DHT22;41716;51.910;4.430;2023-06-10T19:43:01;30.40;85.80
55795;DHT22;41716;51.910;4.430;2023-06-10T19:48:04;30.20;85.90
55795;DHT22;41716;51.910;4.430;2023-06-10T19:53:06;30.20;86.20
55795;DHT22;41716;51.910;4.430;2023-06-10T19:58:08;30.10;86.40
55795;DHT22;41716;51.910;4.430;2023-06-10T20:03:11;29.80;86.70
55795;DHT22;41716;51.910;4.430;2023-06-10T20:08:12;29.80;87.20
55795;DHT22;41716;51.910;4.430;2023-06-10T20:13:14;29.70;87.10
55795;DHT22;41716;51.910;4.430;2023-06-10T20:18:17;29.70;87.00
55795;DHT22;41716;51.910;4.430;2023-06-10T20:23:19;29.80;86.70
55795;DHT22;41716;51.910;4.430;2023-06-10T20:28:21;29.50;87.20
55795;DHT22;41716;51.910;4.430;2023-06-10T20:33:24;29.20;86.80
55795;DHT22;41716;51.910;4.430;2023-06-10T20:38:25;29.50;87.10
55795;DHT22;41716;51.910;4.430;2023-06-10T20:43:27;29.30;86.90
55795;DHT22;41716;51.910;4.430;2023-06-10T20:48:30;29.20;86.80
55795;DHT22;41716;51.910;4.430;2023-06-10T20:53:32;28.80;87.00
55795;DHT22;41716;51.910;4.430;2023-06-10T20:58:33;28.50;87.20
55795;DHT22;41716;51.910;4.430;2023-06-10T21:03:37;28.70;87.00
55795;DHT22;41716;51.910;4.430;2023-06-10T21:08:38;28.70;86.90
55795;DHT22;41716;51.910;4.430;2023-06-10T21:13:40;28.50;86.90
55795;DHT22;41716;51.910;4.430;2023-06-10T21:18:43;28.50;86.80
55795;DHT22;41716;51.910;4.430;2023-06-10T21:23:45;28.40;86.90
55795;DHT22;41716;51.910;4.430;2023-06-10T21:28:46;28.40;87.20
55795;DHT22;41716;51.910;4.430;2023-06-10T21:33:50;28.20;87.30
55795;DHT22;41716;51.910;4.430;2023-06-10T21:38:52;28.10;87.30
55795;DHT22;41716;51.910;4.430;2023-06-10T21:43:54;27.80;87.50
55795;DHT22;41716;51.910;4.430;2023-06-10T21:48:57;27.80;87.50
55795;DHT22;41716;51.910;4.430;2023-06-10T21:53:59;27.70;87.80
55795;DHT22;41716;51.910;4.430;2023-06-10T21:59:01;27.60;87.90
55795;DHT22;41716;51.910;4.430;2023-06-10T22:04:04;27.80;87.50
55795;DHT22;41716;51.910;4.430;2023-06-10T22:09:06;27.40;87.70
55795;DHT22;41716;51.910;4.430;2023-06-10T22:14:08;27.30;90.10
55795;DHT22;41716;51.910;4.430;2023-06-10T22:19:11;27.20;88.40
55795;DHT22;41716;51.910;4.430;2023-06-10T22:24:13;27.10;88.90
55795;DHT22;41716;51.910;4.430;2023-06-10T22:29:15;27.10;89.00
55795;DHT22;41716;51.910;4.430;2023-06-10T22:34:18;27.10;89.20
55795;DHT22;41716;51.910;4.430;2023-06-10T22:39:19;27.00;89.60
55795;DHT22;41716;51.910;4.430;2023-06-10T22:44:21;26.80;90.30
55795;DHT22;41716;51.910;4.430;2023-06-10T22:49:27;26.90;90.20
55795;DHT22;41716;51.910;4.430;2023-06-10T22:54:29;26.70;90.40
55795;DHT22;41716;51.910;4.430;2023-06-10T22:59:31;26.50;90.90
55795;DHT22;41716;51.910;4.430;2023-06-10T23:04:34;26.60;90.80
55795;DHT22;41716;51.910;4.430;2023-06-10T23:09:36;26.70;90.90
55795;DHT22;41716;51.910;4.430;2023-06-10T23:14:37;26.60;90.90
55795;DHT22;41716;51.910;4.430;2023-06-10T23:19:40;26.60;91.10
55795;DHT22;41716;51.910;4.430;2023-06-10T23:24:43;26.50;91.30
55795;DHT22;41716;51.910;4.430;2023-06-10T23:29:48;26.40;91.50
55795;DHT22;41716;51.910;4.430;2023-06-10T23:34:51;26.30;91.50
55795;DHT22;41716;51.910;4.430;2023-06-10T23:39:52;26.30;91.80
55795;DHT22;41716;51.910;4.430;2023-06-10T23:44:54;26.20;92.20
55795;DHT22;41716;51.910;4.430;2023-06-10T23:49:57;26.20;92.50
55795;DHT22;41716;51.910;4.430;2023-06-10T23:54:59;26.30;92.60
